sensor_id;sensor_type;location;lat;lon;timestamp;pressure;altitude;pressure_sealevel;temperature;humidity
75604;BME280;64187;51.010;13.792;2023-05-07T00:04:03;100636.91;;;11.64;74.33
75604;BME280;64187;51.010;13.792;2023-05-07T00:09:03;100643.44;;;11.92;73.38
75604;BME280;64187;51.010;13.792;2023-05-07T00:14:02;100643.53;;;11.56;74.39
75604;BME280;64187;51.010;13.792;2023-05-07T00:19:01;100650.13;;;11.60;74.28
75604;BME280;64187;51.010;13.792;2023-05-07T00:24:00;100647.09;;;11.45;75.45
75604;BME280;64187;51.010;13.792;2023-05-07T00:28:59;100655.69;;;11.54;74.38
75604;BME280;64187;51.010;13.792;2023-05-07T00:33:58;100653.38;;;11.34;75.45
75604;BME280;64187;51.010;13.792;2023-05-07T00:38:59;100649.47;;;11.53;73.94
75604;BME280;64187;51.010;13.792;2023-05-07T00:43:58;100654.91;;;11.41;75.45
75604;BME280;64187;51.010;13.792;2023-05-07T00:48:57;100652.19;;;11.41;75.72
75604;BME280;64187;51.010;13.792;2023-05-07T00:53:56;100646.19;;;11.39;75.27
75604;BME280;64187;51.010;13.792;2023-05-07T00:58:55;100649.16;;;11.26;76.03
75604;BME280;64187;51.010;13.792;2023-05-07T01:03:54;100645.38;;;11.27;75.53
75604;BME280;64187;51.010;13.792;2023-05-07T01:08:54;100636.34;;;11.21;75.96
75604;BME280;64187;51.010;13.792;2023-05-07T01:13:55;100649.88;;;11.33;75.04
75604;BME280;64187;51.010;13.792;2023-05-07T01:18:55;100647.44;;;10.96;76.34
75604;BME280;64187;51.010;13.792;2023-05-07T01:23:54;100651.28;;;11.24;75.64
75604;BME280;64187;51.010;13.792;2023-05-07T01:28:54;100656.22;;;11.39;74.71
75604;BME280;64187;51.010;13.792;2023-05-07T01:33:53;100661.31;;;11.24;75.17
75604;BME280;64187;51.010;13.792;2023-05-07T01:38:53;100652.50;;;10.93;75.73
75604;BME280;64187;51.010;13.792;2023-05-07T01:43:54;100653.78;;;11.02;76.04
75604;BME280;64187;51.010;13.792;2023-05-07T01:48:53;100664.63;;;11.14;75.41
75604;BME280;64187;51.010;13.792;2023-05-07T01:53:53;100662.00;;;11.31;73.87
75604;BME280;64187;51.010;13.792;2023-05-07T01:58:52;100659.91;;;11.21;74.71
75604;BME280;64187;51.010;13.792;2023-05-07T02:03:51;100663.53;;;11.38;74.21
75604;BME280;64187;51.010;13.792;2023-05-07T02:08:55;100660.59;;;11.16;75.03
75604;BME280;64187;51.010;13.792;2023-05-07T02:13:54;100654.97;;;11.18;74.68
75604;BME280;64187;51.010;13.792;2023-05-07T02:18:53;100662.06;;;10.84;75.95
75604;BME280;64187;51.010;13.792;2023-05-07T02:23:52;100673.47;;;10.86;76.20
75604;BME280;64187;51.010;13.792;2023-05-07T02:28:51;100670.28;;;11.01;74.87
75604;BME280;64187;51.010;13.792;2023-05-07T02:33:50;100667.81;;;11.11;74.40
75604;BME280;64187;51.010;13.792;2023-05-07T02:38:49;100671.56;;;10.98;74.24
75604;BME280;64187;51.010;13.792;2023-05-07T02:43:48;100678.91;;;10.86;74.93
75604;BME280;64187;51.010;13.792;2023-05-07T02:48:47;100674.16;;;11.16;74.13
75604;BME280;64187;51.010;13.792;2023-05-07T02:53:46;100668.84;;;11.21;72.45
75604;BME280;64187;51.010;13.792;2023-05-07T02:58:45;100669.69;;;10.98;73.58
75604;BME280;64187;51.010;13.792;2023-05-07T03:03:46;100677.56;;;11.00;74.65
75604;BME280;64187;51.010;13.792;2023-05-07T03:08:45;100673.31;;;11.28;72.96
75604;BME280;64187;51.010;13.792;2023-05-07T03:13:44;100672.16;;;11.12;74.08
75604;BME280;64187;51.010;13.792;2023-05-07T03:18:43;100674.63;;;11.13;73.55
75604;BME280;64187;51.010;13.792;2023-05-07T03:23:43;100671.22;;;10.94;75.22
75604;BME280;64187;51.010;13.792;2023-05-07T03:28:41;100675.47;;;11.02;73.89
75604;BME280;64187;51.010;13.792;2023-05-07T03:33:53;100682.41;;;10.98;74.61
75604;BME280;64187;51.010;13.792;2023-05-07T03:38:52;100691.81;;;10.72;74.97
75604;BME280;64187;51.010;13.792;2023-05-07T03:43:55;100690.97;;;10.48;77.23
75604;BME280;64187;51.010;13.792;2023-05-07T03:48:54;100692.78;;;10.66;75.84
75604;BME280;64187;51.010;13.792;2023-05-07T03:53:53;100699.56;;;10.56;75.84
75604;BME280;64187;51.010;13.792;2023-05-07T03:58:53;100693.34;;;10.68;76.67
75604;BME280;64187;51.010;13.792;2023-05-07T04:03:53;100696.63;;;10.46;77.42
75604;BME280;64187;51.010;13.792;2023-05-07T04:08:52;100697.81;;;10.62;76.55
75604;BME280;64187;51.010;13.792;2023-05-07T04:13:51;100699.13;;;10.95;74.97
75604;BME280;64187;51.010;13.792;2023-05-07T04:18:54;100705.72;;;10.64;76.94
75604;BME280;64187;51.010;13.792;2023-05-07T04:23:53;100705.13;;;10.73;76.89
75604;BME280;64187;51.010;13.792;2023-05-07T04:28:52;100706.66;;;10.69;75.51
75604;BME280;64187;51.010;13.792;2023-05-07T04:33:51;100716.16;;;10.60;76.56
75604;BME280;64187;51.010;13.792;2023-05-07T04:38:50;100729.22;;;10.51;76.57
75604;BME280;64187;51.010;13.792;2023-05-07T04:43:51;100740.81;;;10.82;75.72
75604;BME280;64187;51.010;13.792;2023-05-07T04:48:53;100743.16;;;10.78;75.55
75604;BME280;64187;51.010;13.792;2023-05-07T04:53:52;100739.63;;;10.66;75.51
75604;BME280;64187;51.010;13.792;2023-05-07T04:58:51;100748.84;;;10.89;74.10
75604;BME280;64187;51.010;13.792;2023-05-07T05:03:52;100759.81;;;11.06;73.39
75604;BME280;64187;51.010;13.792;2023-05-07T05:08:52;100755.91;;;11.25;72.97
75604;BME280;64187;51.010;13.792;2023-05-07T05:13:51;100754.50;;;11.34;71.59
75604;BME280;64187;51.010;13.792;2023-05-07T05:18:52;100750.25;;;11.03;73.45
75604;BME280;64187;51.010;13.792;2023-05-07T05:23:52;100747.66;;;11.43;72.12
75604;BME280;64187;51.010;13.792;2023-05-07T05:28:55;100759.81;;;11.06;72.77
75604;BME280;64187;51.010;13.792;2023-05-07T05:33:55;100769.09;;;10.86;73.39
75604;BME280;64187;51.010;13.792;2023-05-07T05:38:55;100777.81;;;10.88;74.25
75604;BME280;64187;51.010;13.792;2023-05-07T05:43:54;100779.72;;;11.23;72.64
75604;BME280;64187;51.010;13.792;2023-05-07T05:48:53;100783.47;;;11.34;72.39
75604;BME280;64187;51.010;13.792;2023-05-07T05:53:52;100784.66;;;11.26;72.44
75604;BME280;64187;51.010;13.792;2023-05-07T05:58:51;100796.53;;;11.25;72.60
75604;BME280;64187;51.010;13.792;2023-05-07T06:03:50;100807.53;;;11.18;72.02
75604;BME280;64187;51.010;13.792;2023-05-07T06:08:49;100807.91;;;10.68;73.23
75604;BME280;64187;51.010;13.792;2023-05-07T06:13:53;100813.25;;;10.87;72.96
75604;BME280;64187;51.010;13.792;2023-05-07T06:18:52;100819.47;;;10.87;71.97
75604;BME280;64187;51.010;13.792;2023-05-07T06:23:51;100817.09;;;10.79;72.48
75604;BME280;64187;51.010;13.792;2023-05-07T06:28:51;100828.91;;;10.96;73.08
75604;BME280;64187;51.010;13.792;2023-05-07T06:33:50;100832.22;;;11.10;71.31
75604;BME280;64187;51.010;13.792;2023-05-07T06:38:50;100825.88;;;11.05;71.37
75604;BME280;64187;51.010;13.792;2023-05-07T06:43:49;100817.84;;;10.86;72.15
75604;BME280;64187;51.010;13.792;2023-05-07T06:49:04;100834.56;;;10.83;71.50
75604;BME280;64187;51.010;13.792;2023-05-07T06:54:03;100842.69;;;10.95;70.99
75604;BME280;64187;51.010;13.792;2023-05-07T06:59:06;100832.66;;;10.84;71.72
75604;BME280;64187;51.010;13.792;2023-05-07T07:04:09;100835.28;;;11.02;71.68
75604;BME280;64187;51.010;13.792;2023-05-07T07:09:10;100845.09;;;11.15;70.90
75604;BME280;64187;51.010;13.792;2023-05-07T07:14:09;100840.22;;;11.05;69.84
75604;BME280;64187;51.010;13.792;2023-05-07T07:19:16;100846.38;;;11.12;69.79
75604;BME280;64187;51.010;13.792;2023-05-07T07:24:16;100846.28;;;10.77;71.52
75604;BME280;64187;51.010;13.792;2023-05-07T07:29:23;100853.78;;;11.05;71.24
75604;BME280;64187;51.010;13.792;2023-05-07T07:34:24;100851.84;;;10.82;72.46
75604;BME280;64187;51.010;13.792;2023-05-07T07:39:24;100854.94;;;10.86;71.44
75604;BME280;64187;51.010;13.792;2023-05-07T07:44:27;100855.63;;;10.93;71.49
75604;BME280;64187;51.010;13.792;2023-05-07T07:49:30;100858.19;;;11.18;70.09
75604;BME280;64187;51.010;13.792;2023-05-07T07:54:33;100864.56;;;11.59;67.67
75604;BME280;64187;51.010;13.792;2023-05-07T07:59:33;100861.38;;;11.62;67.63
75604;BME280;64187;51.010;13.792;2023-05-07T08:04:32;100869.03;;;11.41;68.11
75604;BME280;64187;51.010;13.792;2023-05-07T08:09:36;100872.94;;;11.34;67.71
75604;BME280;64187;51.010;13.792;2023-05-07T08:14:36;100874.28;;;11.13;68.94
75604;BME280;64187;51.010;13.792;2023-05-07T08:19:37;100879.25;;;11.28;68.79
75604;BME280;64187;51.010;13.792;2023-05-07T08:24:39;100880.56;;;11.25;68.45
75604;BME280;64187;51.010;13.792;2023-05-07T08:29:39;100887.31;;;11.34;68.09
75604;BME280;64187;51.010;13.792;2023-05-07T08:34:38;100882.38;;;11.43;69.57
75604;BME280;64187;51.010;13.792;2023-05-07T08:39:39;100886.75;;;11.56;67.66
75604;BME280;64187;51.010;13.792;2023-05-07T08:44:45;100880.81;;;11.82;66.81
75604;BME280;64187;51.010;13.792;2023-05-07T08:49:47;100886.25;;;11.82;66.31
75604;BME280;64187;51.010;13.792;2023-05-07T08:54:47;100888.06;;;12.00;66.21
75604;BME280;64187;51.010;13.792;2023-05-07T08:59:47;100899.13;;;11.75;67.12
75604;BME280;64187;51.010;13.792;2023-05-07T09:04:46;100901.47;;;11.48;67.90
75604;BME280;64187;51.010;13.792;2023-05-07T09:09:46;100905.00;;;11.49;67.87
75604;BME280;64187;51.010;13.792;2023-05-07T09:14:46;100910.09;;;11.80;67.15
75604;BME280;64187;51.010;13.792;2023-05-07T09:19:45;100905.88;;;12.08;66.26
75604;BME280;64187;51.010;13.792;2023-05-07T09:24:49;100909.31;;;12.44;67.99
75604;BME280;64187;51.010;13.792;2023-05-07T09:29:52;100907.66;;;12.55;65.68
75604;BME280;64187;51.010;13.792;2023-05-07T09:34:51;100911.56;;;12.47;65.48
75604;BME280;64187;51.010;13.792;2023-05-07T09:39:54;100915.91;;;12.60;63.96
75604;BME280;64187;51.010;13.792;2023-05-07T09:44:56;100921.44;;;12.65;62.61
75604;BME280;64187;51.010;13.792;2023-05-07T09:49:59;100913.50;;;12.75;63.43
75604;BME280;64187;51.010;13.792;2023-05-07T09:55:01;100921.06;;;12.73;61.36
75604;BME280;64187;51.010;13.792;2023-05-07T10:00:03;100908.97;;;12.81;61.45
75604;BME280;64187;51.010;13.792;2023-05-07T10:05:18;100914.13;;;12.65;61.27
75604;BME280;64187;51.010;13.792;2023-05-07T10:10:20;100908.69;;;12.65;62.15
75604;BME280;64187;51.010;13.792;2023-05-07T10:15:19;100908.16;;;14.32;73.54
75604;BME280;64187;51.010;13.792;2023-05-07T10:20:23;100911.53;;;15.11;68.75
75604;BME280;64187;51.010;13.792;2023-05-07T10:25:30;100909.31;;;14.85;57.58
75604;BME280;64187;51.010;13.792;2023-05-07T10:30:54;100909.44;;;13.52;60.34
75604;BME280;64187;51.010;13.792;2023-05-07T10:36:05;100901.63;;;13.10;61.65
75604;BME280;64187;51.010;13.792;2023-05-07T10:41:05;100909.53;;;13.11;60.58
75604;BME280;64187;51.010;13.792;2023-05-07T10:46:19;100907.88;;;13.10;60.14
75604;BME280;64187;51.010;13.792;2023-05-07T10:51:29;100906.44;;;12.91;61.02
75604;BME280;64187;51.010;13.792;2023-05-07T10:56:38;100898.50;;;12.73;62.04
75604;BME280;64187;51.010;13.792;2023-05-07T11:01:56;100900.91;;;12.86;61.90
75604;BME280;64187;51.010;13.792;2023-05-07T11:17:57;100907.44;;;13.30;60.92
75604;BME280;64187;51.010;13.792;2023-05-07T11:23:00;100899.22;;;13.59;60.24
75604;BME280;64187;51.010;13.792;2023-05-07T11:28:15;100899.47;;;13.74;58.28
75604;BME280;64187;51.010;13.792;2023-05-07T11:33:20;100898.13;;;13.77;59.86
75604;BME280;64187;51.010;13.792;2023-05-07T11:38:24;100900.19;;;13.70;60.23
75604;BME280;64187;51.010;13.792;2023-05-07T11:43:23;100899.31;;;14.03;59.09
75604;BME280;64187;51.010;13.792;2023-05-07T11:48:22;100897.97;;;14.06;59.44
75604;BME280;64187;51.010;13.792;2023-05-07T11:53:25;100903.13;;;14.02;60.00
75604;BME280;64187;51.010;13.792;2023-05-07T11:58:24;100900.03;;;14.37;58.12
75604;BME280;64187;51.010;13.792;2023-05-07T12:03:26;100896.00;;;14.62;58.35
75604;BME280;64187;51.010;13.792;2023-05-07T12:08:29;100898.69;;;14.84;56.50
75604;BME280;64187;51.010;13.792;2023-05-07T12:13:28;100897.44;;;14.70;57.97
75604;BME280;64187;51.010;13.792;2023-05-07T12:18:27;100894.84;;;14.58;58.13
75604;BME280;64187;51.010;13.792;2023-05-07T12:23:26;100903.78;;;14.53;58.71
75604;BME280;64187;51.010;13.792;2023-05-07T12:28:25;100914.59;;;14.48;57.38
75604;BME280;64187;51.010;13.792;2023-05-07T12:33:25;100923.88;;;14.08;59.44
75604;BME280;64187;51.010;13.792;2023-05-07T12:38:25;100920.53;;;14.23;59.63
75604;BME280;64187;51.010;13.792;2023-05-07T12:43:25;100915.94;;;14.46;58.27
75604;BME280;64187;51.010;13.792;2023-05-07T12:48:25;100908.88;;;15.21;56.96
75604;BME280;64187;51.010;13.792;2023-05-07T12:53:26;100911.88;;;14.92;57.58
75604;BME280;64187;51.010;13.792;2023-05-07T12:58:29;100904.16;;;14.40;58.65
75604;BME280;64187;51.010;13.792;2023-05-07T13:03:31;100903.44;;;14.28;58.96
75604;BME280;64187;51.010;13.792;2023-05-07T13:08:36;100897.19;;;14.49;57.82
75604;BME280;64187;51.010;13.792;2023-05-07T13:13:38;100901.56;;;14.50;57.83
75604;BME280;64187;51.010;13.792;2023-05-07T13:18:38;100895.72;;;14.58;57.54
75604;BME280;64187;51.010;13.792;2023-05-07T13:23:38;100899.41;;;14.52;57.56
75604;BME280;64187;51.010;13.792;2023-05-07T13:28:37;100908.53;;;14.41;57.63
75604;BME280;64187;51.010;13.792;2023-05-07T13:33:36;100904.97;;;14.40;57.63
75604;BME280;64187;51.010;13.792;2023-05-07T13:38:34;100902.22;;;14.57;58.53
75604;BME280;64187;51.010;13.792;2023-05-07T13:43:34;100899.78;;;14.17;57.83
75604;BME280;64187;51.010;13.792;2023-05-07T13:48:32;100891.47;;;14.07;58.61
75604;BME280;64187;51.010;13.792;2023-05-07T13:53:31;100893.06;;;14.47;57.72
75604;BME280;64187;51.010;13.792;2023-05-07T13:58:30;100887.78;;;14.57;57.28
75604;BME280;64187;51.010;13.792;2023-05-07T14:03:29;100884.91;;;14.69;56.06
75604;BME280;64187;51.010;13.792;2023-05-07T14:08:30;100896.25;;;14.38;57.22
75604;BME280;64187;51.010;13.792;2023-05-07T14:13:29;100887.56;;;14.41;57.48
75604;BME280;64187;51.010;13.792;2023-05-07T14:18:29;100892.50;;;14.44;57.01
75604;BME280;64187;51.010;13.792;2023-05-07T14:23:28;100885.91;;;14.40;57.29
75604;BME280;64187;51.010;13.792;2023-05-07T14:28:27;100880.03;;;14.49;57.51
75604;BME280;64187;51.010;13.792;2023-05-07T14:33:26;100885.38;;;14.38;56.78
75604;BME280;64187;51.010;13.792;2023-05-07T14:38:24;100878.94;;;14.50;57.30
75604;BME280;64187;51.010;13.792;2023-05-07T14:43:23;100871.72;;;14.60;56.45
75604;BME280;64187;51.010;13.792;2023-05-07T14:48:23;100870.91;;;14.60;56.53
75604;BME280;64187;51.010;13.792;2023-05-07T14:53:22;100881.91;;;14.48;56.73
75604;BME280;64187;51.010;13.792;2023-05-07T14:58:21;100886.47;;;14.42;57.20
75604;BME280;64187;51.010;13.792;2023-05-07T15:03:20;100876.72;;;14.03;58.76
75604;BME280;64187;51.010;13.792;2023-05-07T15:08:20;100888.31;;;13.76;58.91
75604;BME280;64187;51.010;13.792;2023-05-07T15:13:19;100889.31;;;13.70;59.86
75604;BME280;64187;51.010;13.792;2023-05-07T15:18:18;100895.88;;;13.91;58.82
75604;BME280;64187;51.010;13.792;2023-05-07T15:23:20;100893.00;;;13.81;58.98
75604;BME280;64187;51.010;13.792;2023-05-07T15:28:20;100900.69;;;13.67;60.00
75604;BME280;64187;51.010;13.792;2023-05-07T15:33:19;100889.31;;;13.70;58.91
75604;BME280;64187;51.010;13.792;2023-05-07T15:38:18;100897.72;;;13.51;59.24
75604;BME280;64187;51.010;13.792;2023-05-07T15:43:17;100910.50;;;13.68;58.83
75604;BME280;64187;51.010;13.792;2023-05-07T15:48:16;100921.53;;;13.78;58.64
75604;BME280;64187;51.010;13.792;2023-05-07T15:53:15;100918.66;;;13.51;60.62
75604;BME280;64187;51.010;13.792;2023-05-07T15:58:14;100916.59;;;13.41;60.67
75604;BME280;64187;51.010;13.792;2023-05-07T16:03:13;100914.28;;;13.33;60.29
75604;BME280;64187;51.010;13.792;2023-05-07T16:08:12;100920.72;;;13.27;60.34
75604;BME280;64187;51.010;13.792;2023-05-07T16:13:11;100917.91;;;13.39;60.12
75604;BME280;64187;51.010;13.792;2023-05-07T16:18:11;100915.34;;;13.49;59.21
75604;BME280;64187;51.010;13.792;2023-05-07T16:23:13;100919.31;;;13.41;59.39
75604;BME280;64187;51.010;13.792;2023-05-07T16:28:13;100914.41;;;13.09;60.30
75604;BME280;64187;51.010;13.792;2023-05-07T16:33:12;100921.91;;;13.19;60.82
75604;BME280;64187;51.010;13.792;2023-05-07T16:38:10;100927.34;;;13.19;60.38
75604;BME280;64187;51.010;13.792;2023-05-07T16:43:09;100929.44;;;13.00;60.52
75604;BME280;64187;51.010;13.792;2023-05-07T16:48:09;100933.03;;;12.89;60.60
75604;BME280;64187;51.010;13.792;2023-05-07T16:53:08;100936.72;;;13.11;59.55
75604;BME280;64187;51.010;13.792;2023-05-07T16:58:08;100926.69;;;13.12;59.86
75604;BME280;64187;51.010;13.792;2023-05-07T17:03:07;100921.47;;;13.39;58.59
75604;BME280;64187;51.010;13.792;2023-05-07T17:08:06;100929.38;;;13.57;57.99
75604;BME280;64187;51.010;13.792;2023-05-07T17:13:05;100935.34;;;13.26;58.45
75604;BME280;64187;51.010;13.792;2023-05-07T17:18:04;100941.97;;;13.01;59.23
75604;BME280;64187;51.010;13.792;2023-05-07T17:23:03;100962.63;;;12.74;61.50
75604;BME280;64187;51.010;13.792;2023-05-07T17:28:02;100963.19;;;12.35;61.59
75604;BME280;64187;51.010;13.792;2023-05-07T17:33:01;100964.75;;;12.07;61.64
75604;BME280;64187;51.010;13.792;2023-05-07T17:38:17;100976.88;;;11.93;61.94
75604;BME280;64187;51.010;13.792;2023-05-07T17:43:16;100977.44;;;11.83;61.79
75604;BME280;64187;51.010;13.792;2023-05-07T17:48:15;100978.22;;;11.72;62.67
75604;BME280;64187;51.010;13.792;2023-05-07T17:53:15;100983.03;;;11.47;62.90
75604;BME280;64187;51.010;13.792;2023-05-07T17:58:14;100977.81;;;11.45;63.08
75604;BME280;64187;51.010;13.792;2023-05-07T18:03:13;100978.78;;;11.39;63.74
75604;BME280;64187;51.010;13.792;2023-05-07T18:08:12;100983.59;;;11.37;63.94
75604;BME280;64187;51.010;13.792;2023-05-07T18:13:10;100993.53;;;11.55;62.87
75604;BME280;64187;51.010;13.792;2023-05-07T18:18:09;100990.34;;;11.46;63.44
75604;BME280;64187;51.010;13.792;2023-05-07T18:23:09;100999.97;;;11.42;62.58
75604;BME280;64187;51.010;13.792;2023-05-07T18:28:08;101004.25;;;11.19;63.37
75604;BME280;64187;51.010;13.792;2023-05-07T18:33:07;100996.97;;;11.20;62.99
75604;BME280;64187;51.010;13.792;2023-05-07T18:38:06;101006.22;;;10.82;64.35
75604;BME280;64187;51.010;13.792;2023-05-07T18:43:05;101018.03;;;10.69;64.77
75604;BME280;64187;51.010;13.792;2023-05-07T18:48:05;101016.59;;;10.67;65.03
75604;BME280;64187;51.010;13.792;2023-05-07T18:53:04;101029.69;;;10.70;65.14
75604;BME280;64187;51.010;13.792;2023-05-07T18:58:03;101029.22;;;10.73;64.62
75604;BME280;64187;51.010;13.792;2023-05-07T19:03:02;101037.94;;;10.75;64.05
75604;BME280;64187;51.010;13.792;2023-05-07T19:08:01;101039.31;;;10.66;64.69
75604;BME280;64187;51.010;13.792;2023-05-07T19:13:00;101036.81;;;10.46;65.38
75604;BME280;64187;51.010;13.792;2023-05-07T19:17:59;101045.63;;;10.41;65.29
75604;BME280;64187;51.010;13.792;2023-05-07T19:22:58;101045.72;;;11.20;81.38
75604;BME280;64187;51.010;13.792;2023-05-07T19:27:57;101045.41;;;11.89;61.83
75604;BME280;64187;51.010;13.792;2023-05-07T19:32:58;101057.34;;;10.90;63.96
75604;BME280;64187;51.010;13.792;2023-05-07T19:37:57;101053.28;;;10.44;65.58
75604;BME280;64187;51.010;13.792;2023-05-07T19:42:56;101055.72;;;10.02;66.60
75604;BME280;64187;51.010;13.792;2023-05-07T19:47:55;101072.34;;;9.74;67.68
75604;BME280;64187;51.010;13.792;2023-05-07T19:52:54;101081.13;;;10.01;67.43
75604;BME280;64187;51.010;13.792;2023-05-07T19:57:53;101083.69;;;9.89;67.30
75604;BME280;64187;51.010;13.792;2023-05-07T20:02:52;101086.59;;;9.88;67.08
75604;BME280;64187;51.010;13.792;2023-05-07T20:07:51;101095.97;;;9.85;67.67
75604;BME280;64187;51.010;13.792;2023-05-07T20:12:49;101095.34;;;9.83;67.97
75604;BME280;64187;51.010;13.792;2023-05-07T20:17:48;101098.41;;;9.93;67.43
75604;BME280;64187;51.010;13.792;2023-05-07T20:22:47;101107.84;;;9.84;67.33
75604;BME280;64187;51.010;13.792;2023-05-07T20:27:46;101116.06;;;9.96;66.72
75604;BME280;64187;51.010;13.792;2023-05-07T20:32:45;101119.91;;;10.13;65.79
75604;BME280;64187;51.010;13.792;2023-05-07T20:37:44;101108.75;;;10.35;65.18
75604;BME280;64187;51.010;13.792;2023-05-07T20:42:43;101117.44;;;10.44;64.47
75604;BME280;64187;51.010;13.792;2023-05-07T20:47:42;101126.88;;;10.34;64.66
75604;BME280;64187;51.010;13.792;2023-05-07T20:52:41;101122.50;;;10.33;63.79
75604;BME280;64187;51.010;13.792;2023-05-07T20:57:40;101120.69;;;10.21;65.00
75604;BME280;64187;51.010;13.792;2023-05-07T21:02:38;101126.78;;;10.16;64.27
75604;BME280;64187;51.010;13.792;2023-05-07T21:07:37;101122.03;;;10.11;64.54
75604;BME280;64187;51.010;13.792;2023-05-07T21:12:36;101125.06;;;9.90;64.51
75604;BME280;64187;51.010;13.792;2023-05-07T21:17:38;101127.13;;;9.56;65.08
75604;BME280;64187;51.010;13.792;2023-05-07T21:22:37;101128.38;;;9.54;65.47
75604;BME280;64187;51.010;13.792;2023-05-07T21:27:36;101128.53;;;9.27;65.86
75604;BME280;64187;51.010;13.792;2023-05-07T21:32:35;101129.59;;;9.13;66.65
75604;BME280;64187;51.010;13.792;2023-05-07T21:37:34;101135.84;;;9.13;66.04
75604;BME280;64187;51.010;13.792;2023-05-07T21:42:36;101141.41;;;9.32;65.44
75604;BME280;64187;51.010;13.792;2023-05-07T21:47:35;101142.28;;;9.05;65.35
75604;BME280;64187;51.010;13.792;2023-05-07T21:52:34;101144.34;;;9.17;65.79
75604;BME280;64187;51.010;13.792;2023-05-07T21:57:34;101148.50;;;9.19;65.90
75604;BME280;64187;51.010;13.792;2023-05-07T22:02:33;101151.13;;;8.48;68.65
75604;BME280;64187;51.010;13.792;2023-05-07T22:07:32;101155.03;;;8.65;68.88
75604;BME280;64187;51.010;13.792;2023-05-07T22:12:31;101160.00;;;8.95;66.02
75604;BME280;64187;51.010;13.792;2023-05-07T22:17:30;101151.47;;;8.98;66.03
75604;BME280;64187;51.010;13.792;2023-05-07T22:22:30;101154.31;;;9.16;65.78
75604;BME280;64187;51.010;13.792;2023-05-07T22:27:28;101153.94;;;9.06;66.66
75604;BME280;64187;51.010;13.792;2023-05-07T22:32:28;101150.16;;;9.14;65.29
75604;BME280;64187;51.010;13.792;2023-05-07T22:37:28;101147.53;;;8.80;66.89
75604;BME280;64187;51.010;13.792;2023-05-07T22:42:27;101143.16;;;8.86;66.53
75604;BME280;64187;51.010;13.792;2023-05-07T22:47:28;101145.91;;;8.79;66.08
75604;BME280;64187;51.010;13.792;2023-05-07T22:52:28;101148.78;;;8.71;66.93
75604;BME280;64187;51.010;13.792;2023-05-07T22:57:27;101143.19;;;8.66;66.82
75604;BME280;64187;51.010;13.792;2023-05-07T23:02:26;101151.25;;;8.93;66.05
75604;BME280;64187;51.010;13.792;2023-05-07T23:07:27;101149.38;;;8.87;66.35
75604;BME280;64187;51.010;13.792;2023-05-07T23:12:26;101148.78;;;8.78;66.61
75604;BME280;64187;51.010;13.792;2023-05-07T23:17:24;101149.81;;;8.90;66.12
75604;BME280;64187;51.010;13.792;2023-05-07T23:22:23;101135.44;;;9.03;65.64
75604;BME280;64187;51.010;13.792;2023-05-07T23:27:22;101141.47;;;8.98;65.65
75604;BME280;64187;51.010;13.792;2023-05-07T23:32:21;101158.13;;;8.95;66.42
75604;BME280;64187;51.010;13.792;2023-05-07T23:37:20;101147.34;;;8.69;67.60
75604;BME280;64187;51.010;13.792;2023-05-07T23:42:19;101144.88;;;8.54;67.79
75604;BME280;64187;51.010;13.792;2023-05-07T23:47:18;101145.28;;;8.37;68.71
75604;BME280;64187;51.010;13.792;2023-05-07T23:52:19;101143.00;;;8.41;68.71
75604;BME280;64187;51.010;13.792;2023-05-07T23:57:18;101143.59;;;8.16;70.00
